Terminal Aerodrome Forecast
Issued by NWS

Home | Current Version | Previous Version | Text Only | Print | Product List | Glossary On
Versions: 1 2 3 4 5 6 7 8 9 10 11 12 13 14 15 16 17 18 19 20 21
349
FTUS43 KDTX 060520
TAFMBS
TAF
KMBS 060520Z 0606/0706 28006KT P6SM SCT045 OVC100
     FM061200 23007KT P6SM BKN050
     FM062000 24011KT P6SM SCT050 BKN100
     FM070200 20006KT P6SM SCT120=

USA.gov is the U.S. government's official web portal to all federal, state and local government web resources and services.